sensor_id;sensor_type;location;lat;lon;timestamp;noise_LAeq;noise_LA_min;noise_LA_max;noise_LA01;noise_LA95
67900;Laerm;54700;51.796;10.956;2023-03-01T00:02:23;51.46;29.00;66.98;;
67900;Laerm;54700;51.796;10.956;2023-03-01T00:04:49;31.97;28.34;39.59;;
67900;Laerm;54700;51.796;10.956;2023-03-01T00:07:16;33.91;28.39;46.20;;
67900;Laerm;54700;51.796;10.956;2023-03-01T00:09:43;31.47;27.63;40.49;;
67900;Laerm;54700;51.796;10.956;2023-03-01T00:12:11;33.69;28.12;43.55;;
67900;Laerm;54700;51.796;10.956;2023-03-01T00:14:38;32.19;28.07;42.14;;
67900;Laerm;54700;51.796;10.956;2023-03-01T00:17:09;31.29;27.68;48.60;;
67900;Laerm;54700;51.796;10.956;2023-03-01T00:19:35;51.43;29.22;67.58;;
67900;Laerm;54700;51.796;10.956;2023-03-01T00:22:02;57.38;39.85;76.99;;
67900;Laerm;54700;51.796;10.956;2023-03-01T00:24:29;36.57;28.73;50.13;;
67900;Laerm;54700;51.796;10.956;2023-03-01T00:26:59;32.79;28.67;41.53;;
67900;Laerm;54700;51.796;10.956;2023-03-01T00:29:26;31.58;28.03;41.14;;
67900;Laerm;54700;51.796;10.956;2023-03-01T00:31:56;33.93;28.45;45.02;;
67900;Laerm;54700;51.796;10.956;2023-03-01T00:34:25;52.34;28.26;67.47;;
67900;Laerm;54700;51.796;10.956;2023-03-01T00:36:52;51.92;27.99;67.25;;
67900;Laerm;54700;51.796;10.956;2023-03-01T00:39:21;29.89;27.61;41.95;;
67900;Laerm;54700;51.796;10.956;2023-03-01T00:41:48;31.18;27.95;39.72;;
67900;Laerm;54700;51.796;10.956;2023-03-01T00:44:16;30.10;27.55;40.25;;
67900;Laerm;54700;51.796;10.956;2023-03-01T00:46:43;29.29;27.51;40.80;;
67900;Laerm;54700;51.796;10.956;2023-03-01T00:49:10;30.54;27.51;41.46;;
67900;Laerm;54700;51.796;10.956;2023-03-01T00:51:39;32.55;27.90;44.81;;
67900;Laerm;54700;51.796;10.956;2023-03-01T00:54:08;34.13;28.03;47.09;;
67900;Laerm;54700;51.796;10.956;2023-03-01T00:56:35;30.47;27.74;41.25;;
67900;Laerm;54700;51.796;10.956;2023-03-01T00:59:02;30.95;28.26;42.01;;
67900;Laerm;54700;51.796;10.956;2023-03-01T01:01:30;49.64;27.90;66.10;;
67900;Laerm;54700;51.796;10.956;2023-03-01T01:03:59;32.09;28.10;41.39;;
67900;Laerm;54700;51.796;10.956;2023-03-01T01:06:28;31.04;28.09;46.50;;
67900;Laerm;54700;51.796;10.956;2023-03-01T01:08:59;30.98;27.88;40.80;;
67900;Laerm;54700;51.796;10.956;2023-03-01T01:11:29;31.97;28.47;42.30;;
67900;Laerm;54700;51.796;10.956;2023-03-01T01:13:57;48.49;28.55;64.22;;
67900;Laerm;54700;51.796;10.956;2023-03-01T01:16:26;33.23;28.05;44.13;;
67900;Laerm;54700;51.796;10.956;2023-03-01T01:18:54;34.15;28.11;43.72;;
67900;Laerm;54700;51.796;10.956;2023-03-01T01:21:23;35.82;29.35;46.44;;
67900;Laerm;54700;51.796;10.956;2023-03-01T01:23:51;32.92;28.42;43.44;;
67900;Laerm;54700;51.796;10.956;2023-03-01T01:26:23;33.34;28.25;42.39;;
67900;Laerm;54700;51.796;10.956;2023-03-01T01:28:51;31.49;28.19;40.53;;
67900;Laerm;54700;51.796;10.956;2023-03-01T01:31:18;33.05;27.91;41.67;;
67900;Laerm;54700;51.796;10.956;2023-03-01T01:33:52;48.85;28.80;65.35;;
67900;Laerm;54700;51.796;10.956;2023-03-01T01:36:20;51.47;27.96;68.66;;
67900;Laerm;54700;51.796;10.956;2023-03-01T01:38:48;31.13;27.72;42.03;;
67900;Laerm;54700;51.796;10.956;2023-03-01T01:41:17;31.81;27.89;41.31;;
67900;Laerm;54700;51.796;10.956;2023-03-01T01:43:48;49.14;28.82;66.15;;
67900;Laerm;54700;51.796;10.956;2023-03-01T01:46:27;30.05;27.71;41.02;;
67900;Laerm;54700;51.796;10.956;2023-03-01T01:49:00;33.40;28.13;41.38;;
67900;Laerm;54700;51.796;10.956;2023-03-01T01:51:45;56.15;28.33;72.16;;
67900;Laerm;54700;51.796;10.956;2023-03-01T01:54:18;51.42;28.34;66.89;;
67900;Laerm;54700;51.796;10.956;2023-03-01T01:56:51;30.53;28.10;41.32;;
67900;Laerm;54700;51.796;10.956;2023-03-01T01:59:24;36.00;29.16;45.70;;
67900;Laerm;54700;51.796;10.956;2023-03-01T02:01:54;32.42;27.83;41.06;;
67900;Laerm;54700;51.796;10.956;2023-03-01T02:04:22;32.43;27.86;43.67;;
67900;Laerm;54700;51.796;10.956;2023-03-01T02:06:53;32.93;28.26;46.45;;
67900;Laerm;54700;51.796;10.956;2023-03-01T02:09:26;31.68;28.07;41.83;;
67900;Laerm;54700;51.796;10.956;2023-03-01T02:11:54;31.17;28.03;40.43;;
67900;Laerm;54700;51.796;10.956;2023-03-01T02:14:21;50.77;28.33;67.22;;
67900;Laerm;54700;51.796;10.956;2023-03-01T02:16:53;31.34;28.78;40.65;;
67900;Laerm;54700;51.796;10.956;2023-03-01T02:19:27;32.25;28.40;40.98;;
67900;Laerm;54700;51.796;10.956;2023-03-01T02:22:02;54.51;28.91;70.90;;
67900;Laerm;54700;51.796;10.956;2023-03-01T02:24:40;33.24;28.67;40.55;;
67900;Laerm;54700;51.796;10.956;2023-03-01T02:27:21;32.03;28.07;45.19;;
67900;Laerm;54700;51.796;10.956;2023-03-01T02:29:55;30.88;27.90;41.16;;
67900;Laerm;54700;51.796;10.956;2023-03-01T02:32:22;34.48;27.73;47.83;;
67900;Laerm;54700;51.796;10.956;2023-03-01T02:34:51;34.57;28.52;45.80;;
67900;Laerm;54700;51.796;10.956;2023-03-01T02:37:19;32.38;28.91;41.21;;
67900;Laerm;54700;51.796;10.956;2023-03-01T02:39:54;57.82;30.55;72.42;;
67900;Laerm;54700;51.796;10.956;2023-03-01T02:42:26;35.40;28.29;47.51;;
67900;Laerm;54700;51.796;10.956;2023-03-01T02:44:58;36.12;28.89;46.59;;
67900;Laerm;54700;51.796;10.956;2023-03-01T02:47:25;32.22;28.97;40.91;;
67900;Laerm;54700;51.796;10.956;2023-03-01T02:49:52;32.22;28.62;40.03;;
67900;Laerm;54700;51.796;10.956;2023-03-01T02:52:30;49.15;29.21;64.69;;
67900;Laerm;54700;51.796;10.956;2023-03-01T02:55:02;36.28;29.71;44.22;;
67900;Laerm;54700;51.796;10.956;2023-03-01T02:57:33;36.38;30.22;50.69;;
67900;Laerm;54700;51.796;10.956;2023-03-01T03:00:05;54.46;31.30;67.29;;
67900;Laerm;54700;51.796;10.956;2023-03-01T03:02:34;53.47;29.63;70.05;;
67900;Laerm;54700;51.796;10.956;2023-03-01T03:05:07;53.55;30.46;70.26;;
67900;Laerm;54700;51.796;10.956;2023-03-01T03:07:37;57.27;33.98;69.40;;
67900;Laerm;54700;51.796;10.956;2023-03-01T03:10:07;51.34;29.63;67.06;;
67900;Laerm;54700;51.796;10.956;2023-03-01T03:12:37;37.58;28.94;52.78;;
67900;Laerm;54700;51.796;10.956;2023-03-01T03:15:07;36.76;30.58;43.67;;
67900;Laerm;54700;51.796;10.956;2023-03-01T03:17:42;38.72;29.95;48.62;;
67900;Laerm;54700;51.796;10.956;2023-03-01T03:20:10;51.47;28.95;66.10;;
67900;Laerm;54700;51.796;10.956;2023-03-01T03:22:38;52.07;31.27;67.36;;
67900;Laerm;54700;51.796;10.956;2023-03-01T03:25:06;55.27;31.25;68.86;;
67900;Laerm;54700;51.796;10.956;2023-03-01T03:27:36;53.50;30.18;66.99;;
67900;Laerm;54700;51.796;10.956;2023-03-01T03:30:05;57.71;30.09;72.01;;
67900;Laerm;54700;51.796;10.956;2023-03-01T03:32:34;52.10;32.01;67.99;;
67900;Laerm;54700;51.796;10.956;2023-03-01T03:35:08;50.85;31.77;67.07;;
67900;Laerm;54700;51.796;10.956;2023-03-01T03:37:36;56.34;39.94;68.95;;
67900;Laerm;54700;51.796;10.956;2023-03-01T03:40:21;57.78;31.86;70.97;;
67900;Laerm;54700;51.796;10.956;2023-03-01T03:42:48;56.09;32.95;67.63;;
67900;Laerm;54700;51.796;10.956;2023-03-01T03:45:18;54.28;31.53;69.99;;
67900;Laerm;54700;51.796;10.956;2023-03-01T03:47:45;53.50;30.94;70.20;;
67900;Laerm;54700;51.796;10.956;2023-03-01T03:50:14;58.16;33.43;73.85;;
67900;Laerm;54700;51.796;10.956;2023-03-01T03:52:41;57.01;31.45;70.84;;
67900;Laerm;54700;51.796;10.956;2023-03-01T03:55:10;38.24;30.93;46.61;;
67900;Laerm;54700;51.796;10.956;2023-03-01T03:57:37;51.26;32.34;66.48;;
67900;Laerm;54700;51.796;10.956;2023-03-01T04:00:10;38.23;30.41;58.32;;
67900;Laerm;54700;51.796;10.956;2023-03-01T04:02:39;38.89;33.03;47.75;;
67900;Laerm;54700;51.796;10.956;2023-03-01T04:05:09;55.48;32.63;70.52;;
67900;Laerm;54700;51.796;10.956;2023-03-01T04:07:37;52.31;32.08;68.82;;
67900;Laerm;54700;51.796;10.956;2023-03-01T04:10:09;56.39;34.49;70.70;;
67900;Laerm;54700;51.796;10.956;2023-03-01T04:12:36;53.24;32.52;69.59;;
67900;Laerm;54700;51.796;10.956;2023-03-01T04:15:04;50.28;36.23;66.32;;
67900;Laerm;54700;51.796;10.956;2023-03-01T04:17:40;55.64;34.78;69.09;;
67900;Laerm;54700;51.796;10.956;2023-03-01T04:20:08;58.69;36.42;73.50;;
67900;Laerm;54700;51.796;10.956;2023-03-01T04:22:36;62.25;36.22;78.36;;
67900;Laerm;54700;51.796;10.956;2023-03-01T04:25:04;56.46;36.78;69.32;;
67900;Laerm;54700;51.796;10.956;2023-03-01T04:27:32;60.32;38.12;75.17;;
67900;Laerm;54700;51.796;10.956;2023-03-01T04:29:59;60.35;36.24;70.58;;
67900;Laerm;54700;51.796;10.956;2023-03-01T04:32:26;56.70;36.81;69.29;;
67900;Laerm;54700;51.796;10.956;2023-03-01T04:34:54;60.61;38.94;72.82;;
67900;Laerm;54700;51.796;10.956;2023-03-01T04:37:21;60.00;38.87;70.82;;
67900;Laerm;54700;51.796;10.956;2023-03-01T04:39:49;60.71;38.16;75.79;;
67900;Laerm;54700;51.796;10.956;2023-03-01T04:42:18;56.23;36.17;68.38;;
67900;Laerm;54700;51.796;10.956;2023-03-01T04:44:45;62.41;38.63;72.99;;
67900;Laerm;54700;51.796;10.956;2023-03-01T04:47:12;60.43;38.50;71.31;;
67900;Laerm;54700;51.796;10.956;2023-03-01T04:49:39;59.72;36.07;70.72;;
67900;Laerm;54700;51.796;10.956;2023-03-01T04:52:07;61.95;37.27;74.43;;
67900;Laerm;54700;51.796;10.956;2023-03-01T04:54:35;62.97;36.63;71.97;;
67900;Laerm;54700;51.796;10.956;2023-03-01T04:57:03;56.58;36.63;68.12;;
67900;Laerm;54700;51.796;10.956;2023-03-01T04:59:29;60.21;34.92;71.67;;
67900;Laerm;54700;51.796;10.956;2023-03-01T05:01:57;59.78;35.33;70.29;;
67900;Laerm;54700;51.796;10.956;2023-03-01T05:04:26;55.63;37.23;70.72;;
67900;Laerm;54700;51.796;10.956;2023-03-01T05:06:52;58.14;36.70;70.95;;
67900;Laerm;54700;51.796;10.956;2023-03-01T05:09:21;59.65;40.91;70.40;;
67900;Laerm;54700;51.796;10.956;2023-03-01T05:11:48;61.08;44.42;70.51;;
67900;Laerm;54700;51.796;10.956;2023-03-01T05:14:15;62.26;42.86;71.30;;
67900;Laerm;54700;51.796;10.956;2023-03-01T05:16:43;58.49;38.61;69.88;;
67900;Laerm;54700;51.796;10.956;2023-03-01T05:19:10;57.43;41.58;68.28;;
67900;Laerm;54700;51.796;10.956;2023-03-01T05:21:41;60.63;39.82;71.75;;
67900;Laerm;54700;51.796;10.956;2023-03-01T05:24:23;60.49;41.74;73.25;;
67900;Laerm;54700;51.796;10.956;2023-03-01T05:26:50;61.06;42.51;69.59;;
67900;Laerm;54700;51.796;10.956;2023-03-01T05:29:18;60.63;41.98;71.40;;
67900;Laerm;54700;51.796;10.956;2023-03-01T05:31:51;61.42;40.98;71.75;;
67900;Laerm;54700;51.796;10.956;2023-03-01T05:34:23;63.80;41.32;71.76;;
67900;Laerm;54700;51.796;10.956;2023-03-01T05:36:51;60.44;41.30;70.96;;
67900;Laerm;54700;51.796;10.956;2023-03-01T05:39:19;62.12;40.32;75.05;;
67900;Laerm;54700;51.796;10.956;2023-03-01T05:41:54;61.83;42.59;72.36;;
67900;Laerm;54700;51.796;10.956;2023-03-01T05:44:21;64.13;46.08;73.62;;
67900;Laerm;54700;51.796;10.956;2023-03-01T05:46:54;64.00;46.23;76.43;;
67900;Laerm;54700;51.796;10.956;2023-03-01T05:49:27;65.13;48.35;78.24;;
67900;Laerm;54700;51.796;10.956;2023-03-01T05:52:04;65.86;53.93;73.26;;
67900;Laerm;54700;51.796;10.956;2023-03-01T05:54:35;63.76;42.17;76.17;;
67900;Laerm;54700;51.796;10.956;2023-03-01T06:00:15;64.30;50.57;73.44;;
67900;Laerm;54700;51.796;10.956;2023-03-01T06:02:57;65.12;47.96;73.29;;
67900;Laerm;54700;51.796;10.956;2023-03-01T06:05:28;64.15;52.07;74.55;;
67900;Laerm;54700;51.796;10.956;2023-03-01T06:08:01;63.62;45.38;74.39;;
67900;Laerm;54700;51.796;10.956;2023-03-01T06:10:32;62.95;47.65;71.31;;
67900;Laerm;54700;51.796;10.956;2023-03-01T06:13:04;65.92;47.17;80.30;;
67900;Laerm;54700;51.796;10.956;2023-03-01T06:15:31;62.42;41.95;74.55;;
67900;Laerm;54700;51.796;10.956;2023-03-01T06:17:59;63.67;42.41;76.00;;
67900;Laerm;54700;51.796;10.956;2023-03-01T06:20:39;63.18;41.78;75.02;;
67900;Laerm;54700;51.796;10.956;2023-03-01T06:23:10;64.21;43.92;72.57;;
67900;Laerm;54700;51.796;10.956;2023-03-01T06:25:59;62.50;44.59;70.67;;
67900;Laerm;54700;51.796;10.956;2023-03-01T06:28:36;63.77;43.31;75.02;;
67900;Laerm;54700;51.796;10.956;2023-03-01T06:31:16;64.69;47.70;72.09;;
67900;Laerm;54700;51.796;10.956;2023-03-01T06:33:48;64.13;44.23;76.23;;
67900;Laerm;54700;51.796;10.956;2023-03-01T06:36:22;64.44;44.99;75.97;;
67900;Laerm;54700;51.796;10.956;2023-03-01T06:39:02;63.37;42.89;74.31;;
67900;Laerm;54700;51.796;10.956;2023-03-01T06:41:36;64.06;43.36;73.90;;
67900;Laerm;54700;51.796;10.956;2023-03-01T06:44:17;62.96;45.14;73.22;;
67900;Laerm;54700;51.796;10.956;2023-03-01T06:46:54;61.87;41.62;71.11;;
67900;Laerm;54700;51.796;10.956;2023-03-01T06:49:26;64.86;46.28;76.77;;
67900;Laerm;54700;51.796;10.956;2023-03-01T06:51:54;65.11;48.17;77.84;;
67900;Laerm;54700;51.796;10.956;2023-03-01T06:54:23;65.13;48.61;72.71;;
67900;Laerm;54700;51.796;10.956;2023-03-01T06:57:07;65.38;54.00;73.92;;
67900;Laerm;54700;51.796;10.956;2023-03-01T06:59:54;65.33;50.91;76.73;;
67900;Laerm;54700;51.796;10.956;2023-03-01T07:02:53;61.51;41.57;71.09;;
67900;Laerm;54700;51.796;10.956;2023-03-01T07:05:39;63.17;39.71;72.89;;
67900;Laerm;54700;51.796;10.956;2023-03-01T07:08:08;62.01;41.20;70.38;;
67900;Laerm;54700;51.796;10.956;2023-03-01T07:10:46;62.43;38.79;86.71;;
67900;Laerm;54700;51.796;10.956;2023-03-01T07:13:29;59.53;38.20;78.57;;
67900;Laerm;54700;51.796;10.956;2023-03-01T07:16:00;63.70;39.03;73.97;;
67900;Laerm;54700;51.796;10.956;2023-03-01T07:18:51;62.93;43.71;71.20;;
67900;Laerm;54700;51.796;10.956;2023-03-01T07:21:45;62.52;41.93;71.33;;
67900;Laerm;54700;51.796;10.956;2023-03-01T07:24:21;63.48;38.59;71.65;;
67900;Laerm;54700;51.796;10.956;2023-03-01T07:26:59;64.44;39.87;76.13;;
67900;Laerm;54700;51.796;10.956;2023-03-01T07:29:46;59.71;35.97;68.89;;
67900;Laerm;54700;51.796;10.956;2023-03-01T07:32:15;62.79;37.26;75.74;;
67900;Laerm;54700;51.796;10.956;2023-03-01T07:34:45;61.85;37.35;71.18;;
67900;Laerm;54700;51.796;10.956;2023-03-01T07:37:15;65.21;47.77;75.36;;
67900;Laerm;54700;51.796;10.956;2023-03-01T07:39:45;58.25;35.17;68.58;;
67900;Laerm;54700;51.796;10.956;2023-03-01T07:42:13;61.40;37.18;71.03;;
67900;Laerm;54700;51.796;10.956;2023-03-01T07:44:40;61.48;37.79;70.03;;
67900;Laerm;54700;51.796;10.956;2023-03-01T07:47:12;61.49;35.63;75.19;;
67900;Laerm;54700;51.796;10.956;2023-03-01T07:50:02;62.23;38.08;71.37;;
67900;Laerm;54700;51.796;10.956;2023-03-01T07:52:32;64.41;40.04;72.98;;
67900;Laerm;54700;51.796;10.956;2023-03-01T07:55:05;62.22;35.97;73.60;;
67900;Laerm;54700;51.796;10.956;2023-03-01T07:57:39;64.27;36.17;74.92;;
67900;Laerm;54700;51.796;10.956;2023-03-01T08:00:11;64.19;42.35;75.50;;
67900;Laerm;54700;51.796;10.956;2023-03-01T08:02:39;62.31;38.05;72.53;;
67900;Laerm;54700;51.796;10.956;2023-03-01T08:05:09;63.74;34.83;75.98;;
67900;Laerm;54700;51.796;10.956;2023-03-01T08:07:37;61.69;34.87;71.35;;
67900;Laerm;54700;51.796;10.956;2023-03-01T08:10:05;60.71;38.45;71.58;;
67900;Laerm;54700;51.796;10.956;2023-03-01T08:12:35;63.90;37.11;74.72;;
67900;Laerm;54700;51.796;10.956;2023-03-01T08:15:05;63.79;42.34;72.96;;
67900;Laerm;54700;51.796;10.956;2023-03-01T08:17:37;63.09;40.36;73.29;;
67900;Laerm;54700;51.796;10.956;2023-03-01T08:20:27;62.98;40.77;74.41;;
67900;Laerm;54700;51.796;10.956;2023-03-01T08:23:13;63.73;48.34;72.11;;
67900;Laerm;54700;51.796;10.956;2023-03-01T08:25:58;62.52;33.41;70.66;;
67900;Laerm;54700;51.796;10.956;2023-03-01T08:28:40;62.97;35.89;72.23;;
67900;Laerm;54700;51.796;10.956;2023-03-01T08:31:35;62.34;37.67;70.65;;
67900;Laerm;54700;51.796;10.956;2023-03-01T08:34:05;64.80;47.53;77.09;;
67900;Laerm;54700;51.796;10.956;2023-03-01T08:36:48;59.42;34.49;69.46;;
67900;Laerm;54700;51.796;10.956;2023-03-01T08:39:27;61.72;34.48;74.58;;
67900;Laerm;54700;51.796;10.956;2023-03-01T08:41:59;62.37;41.80;77.88;;
67900;Laerm;54700;51.796;10.956;2023-03-01T08:44:31;64.76;44.21;75.77;;
67900;Laerm;54700;51.796;10.956;2023-03-01T08:47:42;63.45;43.19;73.79;;
67900;Laerm;54700;51.796;10.956;2023-03-01T08:51:12;63.04;36.11;71.80;;
67900;Laerm;54700;51.796;10.956;2023-03-01T09:01:23;62.96;46.44;74.18;;
67900;Laerm;54700;51.796;10.956;2023-03-01T09:04:03;62.10;42.01;74.53;;
67900;Laerm;54700;51.796;10.956;2023-03-01T09:06:45;63.53;46.32;72.68;;
67900;Laerm;54700;51.796;10.956;2023-03-01T09:09:26;63.46;40.30;72.08;;
67900;Laerm;54700;51.796;10.956;2023-03-01T09:12:00;63.13;40.47;72.66;;
67900;Laerm;54700;51.796;10.956;2023-03-01T09:14:35;60.55;35.31;70.54;;
67900;Laerm;54700;51.796;10.956;2023-03-01T09:17:10;62.59;40.50;73.10;;
67900;Laerm;54700;51.796;10.956;2023-03-01T09:19:39;62.68;41.98;70.16;;
67900;Laerm;54700;51.796;10.956;2023-03-01T09:22:19;63.61;42.37;74.45;;
67900;Laerm;54700;51.796;10.956;2023-03-01T09:24:48;63.89;44.68;75.22;;
67900;Laerm;54700;51.796;10.956;2023-03-01T09:27:24;60.36;36.60;71.47;;
67900;Laerm;54700;51.796;10.956;2023-03-01T09:29:53;62.58;45.40;73.97;;
67900;Laerm;54700;51.796;10.956;2023-03-01T09:32:23;62.47;40.08;74.90;;
67900;Laerm;54700;51.796;10.956;2023-03-01T09:34:55;66.58;45.53;79.34;;
67900;Laerm;54700;51.796;10.956;2023-03-01T09:37:31;63.67;45.85;73.58;;
67900;Laerm;54700;51.796;10.956;2023-03-01T09:40:08;64.12;41.25;71.61;;
67900;Laerm;54700;51.796;10.956;2023-03-01T09:42:52;63.61;48.93;71.77;;
67900;Laerm;54700;51.796;10.956;2023-03-01T09:45:29;61.68;37.02;73.93;;
67900;Laerm;54700;51.796;10.956;2023-03-01T09:48:00;61.10;35.91;71.02;;
67900;Laerm;54700;51.796;10.956;2023-03-01T09:50:33;60.02;44.32;70.66;;
67900;Laerm;54700;51.796;10.956;2023-03-01T09:53:09;62.01;45.40;70.09;;
67900;Laerm;54700;51.796;10.956;2023-03-01T09:55:43;61.08;37.84;69.36;;
67900;Laerm;54700;51.796;10.956;2023-03-01T09:58:38;65.05;41.03;75.95;;
67900;Laerm;54700;51.796;10.956;2023-03-01T10:01:24;62.32;40.75;72.67;;
67900;Laerm;54700;51.796;10.956;2023-03-01T10:04:09;64.46;37.62;77.55;;
67900;Laerm;54700;51.796;10.956;2023-03-01T10:06:39;61.95;39.56;69.65;;
67900;Laerm;54700;51.796;10.956;2023-03-01T10:09:13;61.94;38.49;70.64;;
67900;Laerm;54700;51.796;10.956;2023-03-01T10:11:50;63.32;41.52;76.39;;
67900;Laerm;54700;51.796;10.956;2023-03-01T10:14:28;62.39;37.98;75.82;;
67900;Laerm;54700;51.796;10.956;2023-03-01T10:17:02;63.13;38.07;73.20;;
67900;Laerm;54700;51.796;10.956;2023-03-01T10:19:38;61.50;37.89;72.34;;
67900;Laerm;54700;51.796;10.956;2023-03-01T10:22:13;63.20;43.13;71.01;;
67900;Laerm;54700;51.796;10.956;2023-03-01T10:24:44;61.74;40.59;70.76;;
67900;Laerm;54700;51.796;10.956;2023-03-01T10:27:20;62.25;41.80;74.75;;
67900;Laerm;54700;51.796;10.956;2023-03-01T10:30:01;62.18;40.12;77.55;;
67900;Laerm;54700;51.796;10.956;2023-03-01T10:32:33;64.53;48.69;76.58;;
67900;Laerm;54700;51.796;10.956;2023-03-01T10:35:19;67.71;56.68;80.56;;
67900;Laerm;54700;51.796;10.956;2023-03-01T10:38:05;61.70;37.59;76.24;;
67900;Laerm;54700;51.796;10.956;2023-03-01T10:43:44;63.50;45.17;74.79;;
67900;Laerm;54700;51.796;10.956;2023-03-01T10:46:27;62.38;40.66;74.23;;
67900;Laerm;54700;51.796;10.956;2023-03-01T10:49:25;63.77;47.43;77.93;;
67900;Laerm;54700;51.796;10.956;2023-03-01T10:52:15;62.63;43.02;70.88;;
67900;Laerm;54700;51.796;10.956;2023-03-01T10:55:21;63.19;45.17;75.90;;
67900;Laerm;54700;51.796;10.956;2023-03-01T11:02:01;64.15;40.21;75.65;;
67900;Laerm;54700;51.796;10.956;2023-03-01T11:05:13;61.57;42.51;72.01;;
67900;Laerm;54700;51.796;10.956;2023-03-01T11:08:01;62.62;39.60;72.86;;
67900;Laerm;54700;51.796;10.956;2023-03-01T11:10:38;63.54;35.82;76.42;;
67900;Laerm;54700;51.796;10.956;2023-03-01T11:13:16;62.86;41.35;76.39;;
67900;Laerm;54700;51.796;10.956;2023-03-01T11:15:58;62.04;40.65;72.38;;
67900;Laerm;54700;51.796;10.956;2023-03-01T11:18:26;62.77;39.00;73.56;;
67900;Laerm;54700;51.796;10.956;2023-03-01T11:20:59;62.37;43.20;71.28;;
67900;Laerm;54700;51.796;10.956;2023-03-01T11:23:33;61.17;37.58;70.38;;
67900;Laerm;54700;51.796;10.956;2023-03-01T11:26:04;68.01;45.38;88.65;;
67900;Laerm;54700;51.796;10.956;2023-03-01T11:28:34;62.96;39.67;73.58;;
67900;Laerm;54700;51.796;10.956;2023-03-01T11:31:16;61.15;34.14;71.16;;
67900;Laerm;54700;51.796;10.956;2023-03-01T11:33:48;62.25;35.85;73.34;;
67900;Laerm;54700;51.796;10.956;2023-03-01T11:36:29;63.50;40.61;72.19;;
67900;Laerm;54700;51.796;10.956;2023-03-01T11:39:03;60.21;37.32;68.78;;
67900;Laerm;54700;51.796;10.956;2023-03-01T11:41:38;62.07;39.32;71.58;;
67900;Laerm;54700;51.796;10.956;2023-03-01T11:44:16;64.26;40.99;76.34;;
67900;Laerm;54700;51.796;10.956;2023-03-01T11:47:10;66.73;48.17;78.62;;
67900;Laerm;54700;51.796;10.956;2023-03-01T11:49:55;61.23;34.39;70.72;;
67900;Laerm;54700;51.796;10.956;2023-03-01T11:52:39;62.64;50.77;77.12;;
67900;Laerm;54700;51.796;10.956;2023-03-01T11:55:28;61.98;40.03;74.01;;
67900;Laerm;54700;51.796;10.956;2023-03-01T11:58:13;61.55;46.28;74.48;;
67900;Laerm;54700;51.796;10.956;2023-03-01T12:00:59;63.02;42.60;75.15;;
67900;Laerm;54700;51.796;10.956;2023-03-01T12:03:52;63.67;44.33;72.96;;
67900;Laerm;54700;51.796;10.956;2023-03-01T12:06:46;63.52;43.23;72.50;;
67900;Laerm;54700;51.796;10.956;2023-03-01T12:09:27;63.62;43.72;79.40;;
67900;Laerm;54700;51.796;10.956;2023-03-01T12:12:27;62.96;40.07;73.36;;
67900;Laerm;54700;51.796;10.956;2023-03-01T12:15:11;61.58;38.30;70.81;;
67900;Laerm;54700;51.796;10.956;2023-03-01T12:17:59;62.56;40.82;74.64;;
67900;Laerm;54700;51.796;10.956;2023-03-01T12:20:33;63.24;41.67;73.20;;
67900;Laerm;54700;51.796;10.956;2023-03-01T12:23:22;63.38;37.07;71.21;;
67900;Laerm;54700;51.796;10.956;2023-03-01T12:25:58;63.40;34.01;76.35;;
67900;Laerm;54700;51.796;10.956;2023-03-01T12:28:55;62.62;35.83;77.04;;
67900;Laerm;54700;51.796;10.956;2023-03-01T12:32:00;63.13;38.02;72.50;;
67900;Laerm;54700;51.796;10.956;2023-03-01T12:35:06;62.19;40.38;74.93;;
67900;Laerm;54700;51.796;10.956;2023-03-01T12:37:51;64.79;47.87;76.37;;
67900;Laerm;54700;51.796;10.956;2023-03-01T12:40:33;61.91;36.41;73.66;;
67900;Laerm;54700;51.796;10.956;2023-03-01T12:43:15;63.31;37.06;76.12;;
67900;Laerm;54700;51.796;10.956;2023-03-01T12:45:59;60.92;37.26;73.16;;
67900;Laerm;54700;51.796;10.956;2023-03-01T12:48:40;67.16;35.09;89.21;;
67900;Laerm;54700;51.796;10.956;2023-03-01T12:51:14;63.16;40.23;76.28;;
67900;Laerm;54700;51.796;10.956;2023-03-01T12:53:46;65.91;41.19;83.37;;
67900;Laerm;54700;51.796;10.956;2023-03-01T12:56:19;63.45;43.07;73.21;;
67900;Laerm;54700;51.796;10.956;2023-03-01T12:58:56;62.61;43.94;74.48;;
67900;Laerm;54700;51.796;10.956;2023-03-01T13:01:41;65.40;41.33;77.04;;
67900;Laerm;54700;51.796;10.956;2023-03-01T13:04:24;61.18;38.48;80.12;;
67900;Laerm;54700;51.796;10.956;2023-03-01T13:07:14;61.08;40.14;71.73;;
67900;Laerm;54700;51.796;10.956;2023-03-01T13:09:50;61.66;39.74;69.05;;
67900;Laerm;54700;51.796;10.956;2023-03-01T13:12:50;62.12;33.25;74.01;;
67900;Laerm;54700;51.796;10.956;2023-03-01T13:18:33;62.93;35.29;73.21;;
67900;Laerm;54700;51.796;10.956;2023-03-01T13:21:05;62.32;35.24;73.12;;
67900;Laerm;54700;51.796;10.956;2023-03-01T13:23:40;64.86;41.28;75.22;;
67900;Laerm;54700;51.796;10.956;2023-03-01T13:26:19;63.19;39.70;74.39;;
67900;Laerm;54700;51.796;10.956;2023-03-01T13:28:58;68.98;44.84;84.14;;
67900;Laerm;54700;51.796;10.956;2023-03-01T13:31:59;64.50;42.83;77.74;;
67900;Laerm;54700;51.796;10.956;2023-03-01T13:34:58;65.25;38.82;75.66;;
67900;Laerm;54700;51.796;10.956;2023-03-01T13:37:37;63.58;35.05;76.99;;
67900;Laerm;54700;51.796;10.956;2023-03-01T13:43:33;61.97;40.01;72.64;;
67900;Laerm;54700;51.796;10.956;2023-03-01T13:46:10;63.13;39.92;73.39;;
67900;Laerm;54700;51.796;10.956;2023-03-01T13:48:40;63.68;48.91;71.60;;
67900;Laerm;54700;51.796;10.956;2023-03-01T13:51:30;61.86;39.70;69.48;;
67900;Laerm;54700;51.796;10.956;2023-03-01T13:53:59;64.12;39.61;77.10;;
67900;Laerm;54700;51.796;10.956;2023-03-01T13:56:28;64.68;48.53;74.34;;
67900;Laerm;54700;51.796;10.956;2023-03-01T13:59:12;64.45;50.84;71.41;;
67900;Laerm;54700;51.796;10.956;2023-03-01T14:01:51;63.93;39.71;77.68;;
67900;Laerm;54700;51.796;10.956;2023-03-01T14:04:22;65.00;44.21;75.45;;
67900;Laerm;54700;51.796;10.956;2023-03-01T14:06:51;64.19;47.65;72.63;;
67900;Laerm;54700;51.796;10.956;2023-03-01T14:09:20;64.10;44.78;72.46;;
67900;Laerm;54700;51.796;10.956;2023-03-01T14:12:03;61.69;39.48;72.61;;
67900;Laerm;54700;51.796;10.956;2023-03-01T14:14:50;62.62;39.44;76.51;;
67900;Laerm;54700;51.796;10.956;2023-03-01T14:17:34;62.48;43.34;71.30;;
67900;Laerm;54700;51.796;10.956;2023-03-01T14:20:11;63.33;43.80;76.33;;
67900;Laerm;54700;51.796;10.956;2023-03-01T14:22:44;61.88;43.42;70.50;;
67900;Laerm;54700;51.796;10.956;2023-03-01T14:25:33;66.45;44.43;82.02;;
67900;Laerm;54700;51.796;10.956;2023-03-01T14:28:15;63.61;43.90;71.99;;
67900;Laerm;54700;51.796;10.956;2023-03-01T14:30:44;61.97;40.62;71.56;;
67900;Laerm;54700;51.796;10.956;2023-03-01T14:33:20;65.15;48.30;74.57;;
67900;Laerm;54700;51.796;10.956;2023-03-01T14:35:55;64.19;47.28;74.42;;
67900;Laerm;54700;51.796;10.956;2023-03-01T14:38:33;63.75;39.69;73.14;;
67900;Laerm;54700;51.796;10.956;2023-03-01T14:41:03;63.59;43.67;72.85;;